Time;durP1;ratioP1;P1;durP2;ratioP2;P2;SDS_P1;SDS_P2;PMS_P1;PMS_P2;Temp;Humidity;BMP_temperature;BMP_pressure;BME280_temperature;BME280_humidity;BME280_pressure;Samples;Min_cycle;Max_cycle;Signal;HPM_P1;HPM_P2
2021/06/13 00:01:12;;;;;;;15.93;5.68;;;14.20;69.90;;;;;;5137682;27;20067;-37
2021/06/13 00:03:38;;;;;;;10.98;5.90;;;14.20;70.10;;;;;;5136661;27;20023;-37
2021/06/13 00:06:04;;;;;;;14.27;6.82;;;14.20;70.30;;;;;;5137844;27;20428;-37
2021/06/13 00:08:31;;;;;;;12.65;5.95;;;14.10;70.50;;;;;;5136486;27;20439;-43
2021/06/13 00:10:58;;;;;;;13.45;5.95;;;14.20;70.40;;;;;;5136395;27;20118;-36
2021/06/13 00:13:26;;;;;;;9.80;6.03;;;14.20;70.30;;;;;;5136035;27;20026;-40
2021/06/13 00:15:52;;;;;;;12.90;6.70;;;14.10;70.60;;;;;;5137127;27;20019;-36
2021/06/13 00:18:19;;;;;;;9.70;5.50;;;14.10;70.50;;;;;;5135959;27;20027;-36
2021/06/13 00:20:45;;;;;;;13.13;6.40;;;14.10;70.60;;;;;;5137211;27;20024;-36
2021/06/13 00:23:11;;;;;;;15.20;5.90;;;14.00;70.90;;;;;;5137094;27;20120;-36
2021/06/13 00:25:37;;;;;;;13.13;5.85;;;14.00;71.10;;;;;;5136868;27;20039;-36
2021/06/13 00:28:03;;;;;;;13.02;5.55;;;14.00;71.20;;;;;;5137028;27;20012;-36
2021/06/13 00:30:28;;;;;;;19.02;8.52;;;14.10;71.00;;;;;;5136867;27;20023;-36
2021/06/13 00:32:54;;;;;;;10.77;6.63;;;14.00;71.10;;;;;;5136891;27;20042;-36
2021/06/13 00:35:22;;;;;;;15.52;6.80;;;13.90;71.30;;;;;;5135760;27;20106;-37
2021/06/13 00:37:48;;;;;;;14.77;6.63;;;13.80;71.70;;;;;;5137091;27;20420;-36
2021/06/13 00:40:16;;;;;;;15.52;5.68;;;13.80;71.70;;;;;;5136624;27;20019;-37
2021/06/13 00:42:44;;;;;;;9.40;5.93;;;13.70;72.20;;;;;;5136601;27;20117;-36
2021/06/13 00:45:10;;;;;;;14.43;6.20;;;13.80;72.30;;;;;;5136875;27;20043;-37
2021/06/13 00:47:37;;;;;;;13.57;6.63;;;13.70;72.50;;;;;;5136564;27;20067;-36
2021/06/13 00:50:12;;;;;;;16.55;7.07;;;13.70;72.40;;;;;;5136786;27;20023;-36
2021/06/13 00:52:38;;;;;;;12.68;6.35;;;13.70;72.70;;;;;;5136317;27;20114;-41
2021/06/13 00:55:05;;;;;;;17.17;6.53;;;13.70;72.70;;;;;;5136461;27;20433;-36
2021/06/13 00:57:30;;;;;;;14.95;5.65;;;13.80;72.30;;;;;;5136255;27;20029;-35
2021/06/13 00:59:56;;;;;;;18.25;7.07;;;13.70;72.50;;;;;;5136474;27;20094;-36
2021/06/13 01:02:22;;;;;;;16.52;6.47;;;13.60;73.10;;;;;;5136292;27;20031;-36
2021/06/13 01:04:48;;;;;;;15.52;5.65;;;13.50;73.40;;;;;;5134871;27;20110;-36
2021/06/13 01:07:46;;;;;;;19.45;6.55;;;13.50;73.60;;;;;;5135985;27;20019;-35
2021/06/13 01:10:37;;;;;;;17.52;7.53;;;13.50;73.60;;;;;;5136138;27;20022;-38
2021/06/13 01:13:06;;;;;;;14.13;7.13;;;13.40;73.70;;;;;;5135666;27;20034;-35
2021/06/13 01:15:41;;;;;;;19.88;7.43;;;13.30;74.10;;;;;;5136092;27;20020;-35
2021/06/13 01:18:25;;;;;;;10.63;5.90;;;13.20;74.70;;;;;;5136167;27;20378;-35
2021/06/13 01:21:06;;;;;;;15.55;5.80;;;13.20;74.90;;;;;;5136116;27;20471;-35
2021/06/13 01:24:08;;;;;;;14.23;6.88;;;13.20;75.10;;;;;;5135688;27;20023;-36
2021/06/13 01:26:37;;;;;;;11.25;6.07;;;13.10;75.30;;;;;;5136118;27;20027;-36
2021/06/13 01:29:11;;;;;;;16.50;6.75;;;13.20;75.20;;;;;;5136153;27;20024;-36
2021/06/13 01:31:47;;;;;;;17.00;7.32;;;13.10;75.10;;;;;;5135951;27;20080;-36
2021/06/13 01:34:20;;;;;;;17.35;7.20;;;13.10;75.10;;;;;;5135944;27;20015;-36
2021/06/13 01:36:47;;;;;;;17.88;6.68;;;13.20;75.10;;;;;;5135880;27;20026;-36
2021/06/13 01:39:18;;;;;;;24.95;7.53;;;13.20;75.00;;;;;;5135857;27;20019;-36
2021/06/13 01:41:47;;;;;;;17.77;7.50;;;13.20;74.50;;;;;;5135605;27;20052;-36
2021/06/13 01:44:13;;;;;;;10.05;6.05;;;13.20;74.50;;;;;;5135466;27;20054;-36
2021/06/13 01:46:41;;;;;;;21.05;7.85;;;13.10;74.60;;;;;;5136268;27;20031;-36
2021/06/13 01:49:08;;;;;;;13.25;6.38;;;13.10;74.30;;;;;;5135433;27;20093;-36
2021/06/13 01:51:37;;;;;;;16.50;6.80;;;13.10;74.20;;;;;;5135269;27;20076;-36
2021/06/13 01:54:05;;;;;;;21.13;6.85;;;13.10;74.10;;;;;;5135420;27;20098;-36
2021/06/13 01:56:36;;;;;;;21.05;7.38;;;13.00;74.00;;;;;;5135659;27;20513;-36
2021/06/13 01:59:02;;;;;;;19.17;6.88;;;13.00;74.20;;;;;;5135317;27;20023;-36
2021/06/13 02:01:29;;;;;;;12.65;5.50;;;13.00;74.10;;;;;;5133987;27;20367;-36
2021/06/13 02:03:56;;;;;;;17.30;6.20;;;13.00;73.70;;;;;;5133898;27;20064;-36
2021/06/13 02:06:26;;;;;;;19.85;6.70;;;12.90;73.60;;;;;;5135023;27;20027;-36
2021/06/13 02:08:53;;;;;;;17.63;6.32;;;13.00;73.20;;;;;;5134943;27;20038;-36
2021/06/13 02:11:20;;;;;;;25.83;7.25;;;12.90;73.50;;;;;;5135042;27;20023;-35
2021/06/13 02:13:48;;;;;;;12.15;5.80;;;12.90;73.70;;;;;;5135311;27;20046;-35
2021/06/13 02:16:20;;;;;;;14.10;6.68;;;12.90;73.60;;;;;;5135179;27;20020;-35
2021/06/13 02:18:48;;;;;;;14.18;7.32;;;12.90;73.60;;;;;;5135183;27;20050;-35
2021/06/13 02:21:14;;;;;;;17.02;6.60;;;12.80;73.70;;;;;;5135000;27;20019;-35
2021/06/13 02:23:41;;;;;;;15.93;6.30;;;12.90;73.80;;;;;;5133602;27;20031;-40
2021/06/13 02:26:09;;;;;;;15.68;6.28;;;12.80;74.00;;;;;;5134548;27;20131;-42
2021/06/13 02:28:50;;;;;;;12.60;6.07;;;12.80;74.30;;;;;;5134807;27;20016;-37
2021/06/13 02:31:17;;;;;;;21.55;7.32;;;12.70;74.90;;;;;;5133281;27;20038;-42
2021/06/13 02:33:46;;;;;;;15.57;6.28;;;12.60;75.00;;;;;;5134598;27;20035;-35
2021/06/13 02:36:13;;;;;;;17.05;6.82;;;12.60;75.00;;;;;;5134151;27;20027;-35
2021/06/13 02:38:39;;;;;;;18.23;6.53;;;12.70;74.80;;;;;;5134605;27;20023;-35
2021/06/13 02:41:05;;;;;;;11.13;6.32;;;12.50;75.00;;;;;;5134684;27;20092;-35
2021/06/13 02:43:31;;;;;;;11.98;6.60;;;12.50;75.20;;;;;;5133251;27;20027;-35
2021/06/13 02:45:57;;;;;;;19.48;6.43;;;12.50;75.40;;;;;;5134515;27;20031;-35
2021/06/13 02:48:22;;;;;;;20.70;7.22;;;12.50;75.10;;;;;;5134447;27;20039;-37
2021/06/13 02:50:50;;;;;;;17.40;5.72;;;12.30;75.70;;;;;;5134584;28;20030;-35
2021/06/13 02:53:45;;;;;;;20.25;7.20;;;12.40;75.50;;;;;;5134863;27;20083;-35
2021/06/13 02:56:22;;;;;;;21.83;8.48;;;12.40;75.50;;;;;;5134984;27;20019;-35
2021/06/13 02:58:54;;;;;;;12.40;6.65;;;12.40;75.20;;;;;;5134730;28;20098;-35
2021/06/13 03:01:22;;;;;;;11.35;6.20;;;12.40;75.10;;;;;;5134652;28;20019;-35
2021/06/13 03:03:48;;;;;;;18.50;7.68;;;12.30;75.80;;;;;;5134365;27;20363;-35
2021/06/13 03:06:19;;;;;;;20.00;5.97;;;12.30;75.50;;;;;;5134425;27;20027;-35
2021/06/13 03:08:48;;;;;;;11.73;6.38;;;12.30;75.90;;;;;;5134220;27;20028;-35
2021/06/13 03:11:14;;;;;;;16.73;5.75;;;12.30;76.70;;;;;;5134132;27;20379;-35
2021/06/13 03:13:43;;;;;;;14.98;6.38;;;12.20;76.90;;;;;;5134416;27;20019;-35
2021/06/13 03:16:09;;;;;;;21.40;7.28;;;12.20;76.40;;;;;;5134171;27;20023;-35
2021/06/13 03:18:36;;;;;;;14.50;6.43;;;12.30;76.10;;;;;;5134480;27;20027;-35
2021/06/13 03:21:04;;;;;;;18.50;6.40;;;12.30;76.10;;;;;;5134096;27;20026;-35
2021/06/13 03:23:32;;;;;;;14.35;6.85;;;12.30;76.20;;;;;;5134028;27;20082;-35
2021/06/13 03:26:02;;;;;;;12.30;6.38;;;12.30;76.60;;;;;;5133931;27;20113;-35
2021/06/13 03:28:29;;;;;;;14.43;6.38;;;12.30;76.50;;;;;;5133201;28;20023;-36
2021/06/13 03:30:56;;;;;;;13.27;6.72;;;12.30;76.60;;;;;;5132661;28;20498;-35
2021/06/13 03:33:23;;;;;;;19.80;7.47;;;12.30;75.70;;;;;;5134120;27;20071;-36
2021/06/13 03:35:51;;;;;;;12.07;6.18;;;12.40;75.80;;;;;;5134094;27;20041;-36
2021/06/13 03:38:17;;;;;;;12.65;5.85;;;12.30;75.60;;;;;;5134295;27;20022;-44
2021/06/13 03:40:45;;;;;;;13.20;5.95;;;12.30;75.50;;;;;;5134015;27;20019;-36
2021/06/13 03:43:13;;;;;;;21.77;5.35;;;12.40;75.20;;;;;;5134306;27;20533;-36
2021/06/13 03:45:40;;;;;;;10.90;6.28;;;12.40;75.20;;;;;;5134320;27;20019;-37
2021/06/13 03:48:07;;;;;;;16.25;6.53;;;12.50;74.80;;;;;;5136008;27;20019;-36
2021/06/13 03:50:34;;;;;;;15.50;7.32;;;12.50;74.90;;;;;;5137829;27;20094;-36
2021/06/13 03:53:01;;;;;;;16.02;7.38;;;12.40;75.00;;;;;;5138450;27;20058;-37
2021/06/13 03:55:28;;;;;;;18.00;6.07;;;12.40;75.20;;;;;;5137711;27;20030;-37
2021/06/13 03:57:56;;;;;;;14.50;6.05;;;12.30;75.60;;;;;;5137705;27;20019;-37
2021/06/13 04:00:25;;;;;;;18.10;6.75;;;12.30;75.50;;;;;;5137584;27;20015;-37
2021/06/13 04:02:51;;;;;;;14.82;6.28;;;12.20;75.90;;;;;;5137844;27;20057;-37
2021/06/13 04:05:19;;;;;;;15.55;6.13;;;12.20;76.30;;;;;;5137516;27;20023;-36
2021/06/13 04:07:46;;;;;;;13.48;6.55;;;12.30;76.00;;;;;;5137473;27;20027;-36
2021/06/13 04:10:16;;;;;;;15.05;6.88;;;12.30;75.80;;;;;;5137647;27;20035;-37
2021/06/13 04:12:44;;;;;;;16.00;6.68;;;12.30;75.70;;;;;;5137306;27;20102;-36
2021/06/13 04:15:10;;;;;;;15.65;5.90;;;12.30;75.80;;;;;;5137359;27;20030;-36
2021/06/13 04:17:39;;;;;;;14.55;6.25;;;12.40;75.60;;;;;;5118892;27;20110;-36
2021/06/13 04:20:06;;;;;;;17.90;5.90;;;12.40;75.20;;;;;;5135695;27;20034;-36
2021/06/13 04:22:33;;;;;;;14.80;5.53;;;12.50;74.60;;;;;;5137165;27;20027;-36
2021/06/13 04:25:00;;;;;;;15.10;6.43;;;12.60;74.50;;;;;;5136823;27;20079;-36
2021/06/13 04:27:28;;;;;;;12.20;5.65;;;12.60;74.10;;;;;;5136824;27;20015;-37
2021/06/13 04:30:01;;;;;;;16.58;5.72;;;12.60;74.10;;;;;;5135509;27;20497;-37
2021/06/13 04:32:27;;;;;;;14.32;7.82;;;12.60;74.00;;;;;;5136739;27;20035;-37
2021/06/13 04:34:53;;;;;;;13.93;5.68;;;12.70;73.80;;;;;;5136661;27;20019;-37
2021/06/13 04:37:18;;;;;;;14.68;6.53;;;12.60;74.20;;;;;;5136852;27;20370;-37
2021/06/13 04:39:44;;;;;;;18.52;5.63;;;12.70;73.80;;;;;;5136444;27;20019;-36
2021/06/13 04:42:10;;;;;;;15.90;5.80;;;12.80;73.60;;;;;;5136591;27;20530;-36
2021/06/13 04:44:37;;;;;;;19.52;6.78;;;12.80;73.50;;;;;;5136501;27;20023;-36
2021/06/13 04:47:04;;;;;;;12.27;6.15;;;12.90;72.70;;;;;;5136501;27;20027;-36
2021/06/13 04:49:30;;;;;;;17.00;6.55;;;12.80;72.80;;;;;;5136432;27;20027;-37
2021/06/13 04:51:57;;;;;;;11.85;5.03;;;12.90;73.20;;;;;;5136203;27;20076;-37
2021/06/13 04:54:41;;;;;;;11.38;5.65;;;12.90;73.00;;;;;;5136551;27;20466;-36
2021/06/13 04:57:24;;;;;;;10.13;5.35;;;12.90;73.00;;;;;;5136157;27;20019;-36
2021/06/13 04:59:49;;;;;;;12.45;5.75;;;13.20;72.60;;;;;;5135473;27;20023;-36
2021/06/13 05:02:15;;;;;;;15.73;6.25;;;13.20;72.20;;;;;;5136138;27;20344;-37
2021/06/13 05:04:42;;;;;;;10.80;5.43;;;13.30;72.20;;;;;;5136107;27;20114;-37
2021/06/13 05:07:08;;;;;;;9.65;5.63;;;13.30;72.10;;;;;;5136048;27;20062;-36
2021/06/13 05:09:34;;;;;;;18.52;6.43;;;13.10;72.60;;;;;;5136248;27;20030;-37
2021/06/13 05:11:59;;;;;;;12.07;6.30;;;13.30;72.20;;;;;;5135786;27;20114;-36
2021/06/13 05:14:25;;;;;;;20.63;6.55;;;13.30;71.70;;;;;;5134589;27;20047;-37
2021/06/13 05:16:51;;;;;;;12.10;5.15;;;13.30;71.90;;;;;;5135892;27;20023;-37
2021/06/13 05:19:17;;;;;;;14.50;6.63;;;13.50;71.30;;;;;;5135981;27;20027;-37
2021/06/13 05:21:43;;;;;;;11.85;5.63;;;13.60;71.10;;;;;;5134338;27;20027;-37
2021/06/13 05:24:08;;;;;;;13.80;4.78;;;13.40;71.50;;;;;;5135544;27;20107;-37
2021/06/13 05:26:34;;;;;;;18.70;5.40;;;13.50;71.10;;;;;;5136053;27;20112;-36
2021/06/13 05:29:00;;;;;;;17.95;5.85;;;13.60;70.50;;;;;;5135605;27;20023;-38
2021/06/13 05:31:26;;;;;;;16.52;5.53;;;13.80;70.30;;;;;;5135613;27;20035;-36
2021/06/13 05:33:52;;;;;;;14.07;5.50;;;13.80;69.60;;;;;;5134328;27;20039;-36
2021/06/13 05:36:19;;;;;;;12.25;5.22;;;13.80;69.50;;;;;;5135605;27;20015;-36
2021/06/13 05:38:45;;;;;;;9.90;4.13;;;13.80;69.40;;;;;;5135757;27;20023;-39
2021/06/13 05:41:14;;;;;;;12.75;4.43;;;14.00;68.40;;;;;;5136073;27;20585;-36
2021/06/13 05:43:40;;;;;;;11.60;4.43;;;14.10;67.70;;;;;;5135349;27;20023;-36
2021/06/13 05:46:06;;;;;;;12.70;4.35;;;14.00;67.40;;;;;;5133983;27;20401;-36
2021/06/13 05:48:33;;;;;;;14.43;6.03;;;14.10;67.60;;;;;;5134126;27;20035;-36
2021/06/13 05:51:03;;;;;;;18.20;6.00;;;14.30;66.30;;;;;;5135129;27;20023;-38
2021/06/13 05:53:28;;;;;;;11.65;4.15;;;14.20;66.20;;;;;;5134712;27;20043;-36
2021/06/13 05:55:54;;;;;;;11.38;4.25;;;14.20;65.90;;;;;;5135158;27;20059;-36
2021/06/13 05:58:20;;;;;;;10.13;5.65;;;14.30;66.30;;;;;;5135250;27;20498;-37
2021/06/13 06:00:47;;;;;;;11.27;4.15;;;14.30;66.40;;;;;;5135101;27;20075;-37
2021/06/13 06:03:13;;;;;;;12.20;4.30;;;14.40;65.20;;;;;;5135106;27;20026;-36
2021/06/13 06:05:39;;;;;;;16.10;5.00;;;14.40;64.50;;;;;;5133556;27;20023;-37
2021/06/13 06:08:05;;;;;;;16.55;4.95;;;14.40;64.00;;;;;;5135347;27;20023;-36
2021/06/13 06:10:33;;;;;;;12.07;4.55;;;14.60;63.40;;;;;;5134656;27;20482;-38
2021/06/13 06:13:01;;;;;;;8.48;3.67;;;14.60;63.40;;;;;;5135545;27;20167;-37
2021/06/13 06:15:28;;;;;;;8.65;4.03;;;14.70;62.80;;;;;;5133472;27;20076;-37
2021/06/13 06:17:54;;;;;;;13.77;5.25;;;14.80;61.80;;;;;;5134659;27;20485;-39
2021/06/13 06:20:26;;;;;;;11.13;3.90;;;14.80;62.40;;;;;;5134728;27;20463;-37
2021/06/13 06:22:52;;;;;;;12.38;4.93;;;15.00;60.90;;;;;;5135212;27;20035;-37
2021/06/13 06:25:19;;;;;;;10.25;4.35;;;15.10;60.70;;;;;;5134523;27;20058;-37
2021/06/13 06:27:45;;;;;;;9.65;4.57;;;15.00;61.10;;;;;;5135020;27;20027;-38
2021/06/13 06:30:13;;;;;;;9.27;4.57;;;15.20;60.80;;;;;;5133397;27;20026;-37
2021/06/13 06:32:39;;;;;;;7.97;4.53;;;15.30;61.10;;;;;;5134319;27;20028;-38
2021/06/13 06:35:07;;;;;;;15.27;4.68;;;15.40;60.30;;;;;;5133731;27;20045;-36
2021/06/13 06:37:34;;;;;;;12.07;4.30;;;15.60;59.40;;;;;;5134463;27;20478;-37
2021/06/13 06:40:00;;;;;;;11.95;4.65;;;15.80;56.70;;;;;;5134552;27;20019;-37
2021/06/13 06:42:26;;;;;;;8.30;3.40;;;15.70;57.50;;;;;;5134326;27;20088;-37
2021/06/13 06:44:52;;;;;;;11.65;4.15;;;15.70;56.60;;;;;;5134683;27;20023;-36
2021/06/13 06:47:18;;;;;;;12.23;4.35;;;15.70;54.10;;;;;;5135150;27;20102;-36
2021/06/13 06:49:44;;;;;;;11.18;4.40;;;15.50;55.70;;;;;;5134655;27;20051;-36
2021/06/13 06:52:11;;;;;;;15.40;4.93;;;15.70;56.10;;;;;;5134597;27;20028;-37
2021/06/13 06:54:37;;;;;;;9.10;4.00;;;15.70;56.30;;;;;;5134325;27;20094;-36
2021/06/13 06:57:03;;;;;;;13.05;3.85;;;15.90;55.90;;;;;;5133111;28;20430;-36
2021/06/13 06:59:29;;;;;;;7.50;3.70;;;16.00;54.70;;;;;;5133321;28;20032;-37
2021/06/13 07:01:55;;;;;;;11.65;4.68;;;16.10;54.70;;;;;;5133034;28;20076;-37
2021/06/13 07:04:22;;;;;;;8.75;3.92;;;16.40;53.70;;;;;;5133219;28;20031;-37
2021/06/13 07:06:48;;;;;;;10.43;5.93;;;16.50;53.00;;;;;;5133056;28;20114;-40
2021/06/13 07:09:13;;;;;;;9.20;4.05;;;16.20;53.20;;;;;;5133545;28;20419;-36
2021/06/13 07:11:39;;;;;;;6.47;3.88;;;16.40;51.60;;;;;;5134529;28;20374;-37
2021/06/13 07:14:04;;;;;;;4.45;3.22;;;16.20;50.70;;;;;;5134638;28;20486;-36
2021/06/13 07:16:30;;;;;;;7.63;4.45;;;16.30;50.10;;;;;;5134273;28;20050;-37
2021/06/13 07:18:56;;;;;;;9.60;3.55;;;16.40;51.00;;;;;;5134458;28;20027;-37
2021/06/13 07:21:21;;;;;;;10.18;4.10;;;16.80;50.40;;;;;;5134084;28;20142;-37
2021/06/13 07:23:47;;;;;;;7.70;3.45;;;17.00;49.30;;;;;;5137783;27;20467;-37
2021/06/13 07:26:13;;;;;;;9.30;3.47;;;17.30;48.70;;;;;;5138191;27;20439;-38
2021/06/13 07:28:39;;;;;;;6.72;3.78;;;17.50;47.60;;;;;;5138822;27;20077;-36
2021/06/13 07:31:05;;;;;;;9.00;3.78;;;17.80;46.80;;;;;;5138420;27;20050;-36
2021/06/13 07:33:31;;;;;;;7.50;3.97;;;17.60;46.40;;;;;;5138323;27;20108;-36
2021/06/13 07:35:58;;;;;;;9.23;3.75;;;18.10;45.60;;;;;;5138273;27;20031;-36
2021/06/13 07:38:23;;;;;;;5.95;3.65;;;18.10;44.40;;;;;;5138144;27;20023;-36
2021/06/13 07:40:49;;;;;;;6.30;3.45;;;19.00;43.50;;;;;;5137760;27;20541;-37
2021/06/13 07:43:16;;;;;;;7.53;3.40;;;19.00;43.80;;;;;;5136578;27;20019;-37
2021/06/13 07:45:42;;;;;;;6.53;3.38;;;19.00;42.50;;;;;;5137716;27;20020;-37
2021/06/13 07:48:09;;;;;;;6.38;2.85;;;18.40;44.00;;;;;;5137825;27;20077;-37
2021/06/13 07:50:36;;;;;;;8.15;2.75;;;18.40;43.10;;;;;;5136369;27;20034;-37
2021/06/13 07:53:02;;;;;;;6.70;3.30;;;18.70;42.70;;;;;;5137520;27;20031;-37
2021/06/13 07:55:28;;;;;;;8.00;3.85;;;19.30;41.00;;;;;;5136464;27;20020;-37
2021/06/13 07:57:54;;;;;;;6.38;3.40;;;18.80;43.90;;;;;;5137892;27;20496;-36
2021/06/13 08:00:23;;;;;;;5.65;3.28;;;19.30;41.80;;;;;;5137500;27;20015;-37
2021/06/13 08:02:49;;;;;;;9.95;3.80;;;18.80;43.20;;;;;;5137660;27;20030;-36
2021/06/13 08:05:24;;;;;;;9.18;3.15;;;18.50;44.20;;;;;;5137432;27;20043;-37
2021/06/13 08:07:50;;;;;;;7.65;3.60;;;18.60;44.60;;;;;;5136537;27;20494;-37
2021/06/13 08:10:17;;;;;;;8.82;4.30;;;19.10;43.90;;;;;;5137210;27;20474;-37
2021/06/13 08:12:42;;;;;;;7.97;3.13;;;19.70;42.30;;;;;;5137210;27;20038;-37
2021/06/13 08:15:11;;;;;;;6.75;3.55;;;19.30;42.40;;;;;;5136026;27;20023;-38
2021/06/13 08:17:36;;;;;;;8.13;4.13;;;19.90;41.70;;;;;;5137336;27;20474;-38
2021/06/13 08:20:04;;;;;;;7.97;3.40;;;21.10;39.30;;;;;;5137447;27;20020;-37
2021/06/13 08:22:30;;;;;;;5.35;3.28;;;20.30;40.00;;;;;;5137294;27;20172;-37
2021/06/13 08:24:58;;;;;;;7.65;3.47;;;20.30;39.70;;;;;;5136017;27;20089;-37
2021/06/13 08:27:25;;;;;;;8.82;3.80;;;21.10;37.20;;;;;;5137506;27;20024;-37
2021/06/13 08:29:51;;;;;;;10.82;3.42;;;20.50;37.90;;;;;;5136808;27;20359;-38
2021/06/13 08:32:16;;;;;;;5.93;3.25;;;20.30;38.80;;;;;;5136645;27;20046;-37
2021/06/13 08:34:42;;;;;;;7.35;3.13;;;20.50;38.40;;;;;;5135584;27;20053;-38
2021/06/13 08:37:08;;;;;;;10.05;3.97;;;20.60;38.10;;;;;;5136692;27;20378;-44
2021/06/13 08:39:33;;;;;;;8.55;3.40;;;20.40;38.20;;;;;;5136571;27;20022;-37
2021/06/13 08:41:59;;;;;;;7.63;3.28;;;20.50;38.10;;;;;;5136513;27;20019;-38
2021/06/13 08:44:25;;;;;;;6.65;3.30;;;20.50;38.40;;;;;;5136655;27;20041;-40
2021/06/13 08:46:52;;;;;;;5.90;3.70;;;19.70;40.60;;;;;;5136178;27;20118;-37
2021/06/13 08:49:22;;;;;;;8.95;3.88;;;20.80;39.20;;;;;;5137080;27;20356;-37
2021/06/13 08:51:48;;;;;;;7.50;3.20;;;21.50;36.90;;;;;;5136897;27;20027;-36
2021/06/13 08:54:14;;;;;;;7.38;3.92;;;21.10;37.60;;;;;;5136893;27;20370;-37
2021/06/13 08:56:39;;;;;;;5.43;3.85;;;21.00;38.00;;;;;;5136887;27;20027;-36
2021/06/13 08:59:05;;;;;;;4.88;3.25;;;21.90;36.00;;;;;;5136610;27;20026;-35
2021/06/13 09:01:31;;;;;;;7.20;3.50;;;21.80;36.00;;;;;;5135125;27;20074;-36
2021/06/13 09:03:57;;;;;;;7.90;3.38;;;20.70;38.30;;;;;;5134754;27;20023;-37
2021/06/13 09:06:22;;;;;;;8.27;4.15;;;21.50;36.50;;;;;;5136359;27;20355;-38
2021/06/13 09:08:48;;;;;;;7.00;3.95;;;21.30;37.40;;;;;;5136346;27;20028;-38
2021/06/13 09:11:33;;;;;;;8.80;4.13;;;21.80;35.80;;;;;;5135961;27;20019;-36
2021/06/13 09:14:12;;;;;;;12.82;3.83;;;22.60;34.90;;;;;;5136291;27;20015;-38
2021/06/13 09:16:47;;;;;;;9.27;3.47;;;23.50;33.00;;;;;;5136154;27;20084;-36
2021/06/13 09:19:13;;;;;;;6.35;4.38;;;22.90;34.30;;;;;;5136227;27;20015;-37
2021/06/13 09:21:40;;;;;;;29.50;4.93;;;22.60;34.90;;;;;;5135959;27;20071;-37
2021/06/13 09:24:25;;;;;;;10.38;4.15;;;22.60;35.10;;;;;;5134407;27;20100;-37
2021/06/13 09:26:54;;;;;;;10.93;3.83;;;22.30;35.40;;;;;;5134618;27;20035;-37
2021/06/13 09:29:19;;;;;;;8.15;3.80;;;21.40;37.20;;;;;;5135950;27;20030;-38
2021/06/13 09:31:46;;;;;;;5.40;3.88;;;21.50;37.30;;;;;;5133914;27;20390;-37
2021/06/13 09:34:19;;;;;;;9.88;4.07;;;21.60;37.20;;;;;;5135496;27;20525;-36
2021/06/13 09:36:45;;;;;;;7.20;3.97;;;21.50;37.10;;;;;;5136249;27;20069;-38
2021/06/13 09:39:15;;;;;;;7.25;3.42;;;21.40;37.20;;;;;;5134339;27;20033;-37
2021/06/13 09:41:46;;;;;;;9.27;3.03;;;21.30;37.60;;;;;;5117207;27;20031;-37
2021/06/13 09:44:18;;;;;;;7.38;3.55;;;22.00;36.40;;;;;;5135508;27;20027;-37
2021/06/13 09:46:49;;;;;;;7.80;3.42;;;22.80;34.80;;;;;;5134322;27;20027;-36
2021/06/13 09:49:16;;;;;;;10.63;3.90;;;22.70;34.90;;;;;;5135645;27;20027;-37
2021/06/13 09:51:53;;;;;;;8.80;5.68;;;22.60;35.20;;;;;;5135646;27;20173;-37
2021/06/13 09:54:26;;;;;;;10.00;3.42;;;22.60;35.20;;;;;;5133904;27;20042;-37
2021/06/13 09:56:58;;;;;;;7.13;4.30;;;21.80;36.70;;;;;;5135161;27;20102;-37
2021/06/13 09:59:27;;;;;;;9.80;3.80;;;23.10;35.20;;;;;;5135685;27;20039;-42
2021/06/13 10:01:55;;;;;;;10.75;3.92;;;24.50;32.40;;;;;;5133673;27;20031;-38
2021/06/13 10:04:21;;;;;;;7.07;3.88;;;24.50;31.80;;;;;;5135050;27;20035;-38
2021/06/13 10:06:49;;;;;;;6.30;2.72;;;25.00;31.00;;;;;;5135074;27;20096;-38
2021/06/13 10:09:16;;;;;;;13.70;4.63;;;24.60;31.80;;;;;;5135097;27;20034;-37
2021/06/13 10:11:43;;;;;;;6.10;3.30;;;25.10;30.90;;;;;;5135217;27;20072;-37
2021/06/13 10:14:10;;;;;;;7.13;3.55;;;23.70;32.80;;;;;;5133365;27;20122;-37
2021/06/13 10:16:51;;;;;;;9.05;3.80;;;22.20;36.60;;;;;;5133160;27;20428;-36
2021/06/13 10:19:20;;;;;;;9.05;4.47;;;22.60;35.30;;;;;;5134563;27;20019;-37
2021/06/13 10:21:50;;;;;;;11.38;4.57;;;23.60;33.40;;;;;;5134528;27;20023;-37
2021/06/13 10:24:21;;;;;;;11.68;3.97;;;23.50;32.90;;;;;;5134761;27;20016;-38
2021/06/13 10:26:52;;;;;;;6.88;3.80;;;23.90;32.20;;;;;;5135123;27;20039;-37
2021/06/13 10:29:20;;;;;;;11.20;4.43;;;23.60;32.90;;;;;;5135185;27;20483;-37
2021/06/13 10:31:48;;;;;;;11.15;3.60;;;23.90;32.10;;;;;;5134394;27;20019;-37
2021/06/13 10:34:18;;;;;;;6.88;4.22;;;24.20;31.00;;;;;;5134269;27;20047;-37
2021/06/13 10:36:44;;;;;;;13.93;4.30;;;24.00;31.80;;;;;;5134791;27;20069;-37
2021/06/13 10:39:12;;;;;;;8.77;4.88;;;23.70;33.00;;;;;;5134284;27;20030;-37
2021/06/13 10:41:40;;;;;;;7.43;3.58;;;23.80;32.30;;;;;;5134613;27;20042;-37
2021/06/13 10:44:10;;;;;;;8.75;3.63;;;24.10;31.20;;;;;;5134367;27;20027;-37
2021/06/13 10:46:38;;;;;;;7.57;3.97;;;24.40;31.10;;;;;;5135730;27;20513;-38
2021/06/13 10:49:06;;;;;;;6.82;3.50;;;24.20;31.40;;;;;;5135323;27;20102;-38
2021/06/13 10:51:32;;;;;;;10.40;4.53;;;24.10;30.70;;;;;;5134822;27;20027;-41
2021/06/13 10:54:36;;;;;;;11.57;4.20;;;24.40;30.10;;;;;;5133184;27;20023;-37
2021/06/13 10:57:05;;;;;;;14.98;5.00;;;24.50;30.20;;;;;;5133940;27;20019;-37
2021/06/13 10:59:35;;;;;;;7.30;3.80;;;25.10;29.70;;;;;;5133084;28;20386;-36
2021/06/13 11:02:10;;;;;;;8.23;3.65;;;25.50;29.40;;;;;;5134132;27;20359;-37
2021/06/13 11:04:42;;;;;;;13.55;4.70;;;24.90;30.80;;;;;;5133590;28;20176;-42
2021/06/13 11:07:08;;;;;;;11.02;4.97;;;24.30;30.80;;;;;;5132754;28;20023;-38
2021/06/13 11:09:33;;;;;;;7.28;3.47;;;24.80;29.90;;;;;;5134306;28;20049;-37
2021/06/13 11:11:59;;;;;;;8.20;3.55;;;24.70;30.30;;;;;;5142639;27;20085;-36
2021/06/13 11:14:31;;;;;;;6.47;3.53;;;24.60;29.50;;;;;;5124587;28;20076;-34
2021/06/13 11:16:59;;;;;;;11.20;4.63;;;24.80;30.00;;;;;;5133867;28;20019;-36
2021/06/13 11:19:34;;;;;;;8.30;3.15;;;25.00;30.00;;;;;;5133649;27;20015;-35
2021/06/13 11:22:33;;;;;;;8.48;3.30;;;24.40;30.70;;;;;;5133586;27;20098;-35
2021/06/13 11:25:00;;;;;;;6.88;3.80;;;25.30;30.00;;;;;;5118245;27;20042;-35
2021/06/13 11:27:28;;;;;;;8.55;4.57;;;24.50;31.50;;;;;;5134145;27;20048;-36
2021/06/13 11:29:56;;;;;;;7.28;4.05;;;24.80;30.50;;;;;;5132615;28;20500;-35
2021/06/13 11:32:55;;;;;;;11.98;5.50;;;23.90;31.90;;;;;;5134284;27;20023;-35
2021/06/13 11:35:31;;;;;;;12.05;3.85;;;24.20;31.60;;;;;;5133881;27;20053;-38
2021/06/13 11:38:16;;;;;;;9.30;3.45;;;23.40;32.60;;;;;;5134424;27;20103;-37
2021/06/13 11:41:09;;;;;;;8.82;4.07;;;24.40;31.10;;;;;;5133610;27;20419;-36
2021/06/13 11:43:44;;;;;;;6.63;3.55;;;25.90;28.70;;;;;;5133237;28;20118;-35
2021/06/13 11:46:12;;;;;;;7.15;3.83;;;25.80;29.00;;;;;;5133874;27;20027;-36
2021/06/13 11:48:49;;;;;;;5.80;2.92;;;25.30;29.10;;;;;;5133565;27;20023;-36
2021/06/13 11:51:17;;;;;;;8.02;3.50;;;25.20;29.00;;;;;;5134140;27;20182;-35
2021/06/13 11:54:00;;;;;;;8.50;4.30;;;25.00;29.70;;;;;;5133894;27;20020;-36
2021/06/13 11:56:33;;;;;;;4.18;3.13;;;25.40;29.10;;;;;;5132687;28;20023;-36
2021/06/13 11:59:23;;;;;;;5.68;3.17;;;25.20;30.20;;;;;;5135041;27;20023;-37
2021/06/13 12:02:06;;;;;;;7.43;3.85;;;24.90;31.30;;;;;;5133826;27;20023;-35
2021/06/13 12:04:33;;;;;;;6.65;4.03;;;24.80;31.60;;;;;;5133835;28;20027;-36
2021/06/13 12:07:02;;;;;;;7.80;3.45;;;24.80;31.80;;;;;;5133901;27;20486;-38
2021/06/13 12:09:31;;;;;;;9.67;4.27;;;23.10;34.00;;;;;;5135907;27;20094;-34
2021/06/13 12:11:59;;;;;;;8.30;4.03;;;23.70;33.50;;;;;;5137026;27;20035;-35
2021/06/13 12:14:33;;;;;;;9.18;4.85;;;23.90;33.10;;;;;;5135672;27;20411;-36
2021/06/13 12:17:00;;;;;;;5.70;3.45;;;25.20;31.30;;;;;;5136830;27;20019;-35
2021/06/13 12:19:32;;;;;;;7.38;3.53;;;26.50;29.40;;;;;;5136912;27;20493;-36
2021/06/13 12:22:20;;;;;;;6.38;3.40;;;26.20;29.10;;;;;;5136779;27;20015;-34
2021/06/13 12:27:25;;;;;;;5.78;3.60;;;26.40;29.30;;;;;;5137486;27;20027;-35
2021/06/13 12:29:59;;;;;;;7.80;3.78;;;26.80;29.00;;;;;;5136867;27;20037;-36
2021/06/13 12:32:25;;;;;;;8.63;4.20;;;25.90;29.40;;;;;;5135590;27;20065;-36
2021/06/13 12:35:05;;;;;;;7.72;4.10;;;26.40;28.60;;;;;;5136582;27;20027;-37
2021/06/13 12:37:30;;;;;;;5.70;3.38;;;26.80;28.50;;;;;;5136943;27;20098;-35
2021/06/13 12:40:03;;;;;;;11.60;4.40;;;27.10;28.00;;;;;;5136660;27;20056;-36
2021/06/13 12:42:30;;;;;;;9.55;3.97;;;26.30;29.10;;;;;;5137189;27;20027;-36
2021/06/13 12:45:06;;;;;;;11.10;4.43;;;27.00;28.60;;;;;;5135728;27;20035;-36
2021/06/13 12:47:33;;;;;;;7.78;3.47;;;26.30;29.70;;;;;;5136921;27;20023;-38
2021/06/13 12:49:59;;;;;;;9.05;4.10;;;26.90;29.00;;;;;;5137706;27;20027;-36
2021/06/13 12:52:26;;;;;;;7.18;3.90;;;27.50;27.80;;;;;;5136367;27;20055;-35